sensor_id;sensor_type;location;lat;lon;timestamp;pressure;altitude;pressure_sealevel;temperature;humidity
26083;BME280;13848;49.018;12.078;2023-09-19T00:01:00;97258.31;;;16.50;91.23
26083;BME280;13848;49.018;12.078;2023-09-19T00:03:27;97263.50;;;16.57;90.71
26083;BME280;13848;49.018;12.078;2023-09-19T00:05:53;97262.41;;;16.53;90.45
26083;BME280;13848;49.018;12.078;2023-09-19T00:08:19;97253.41;;;16.57;90.19
26083;BME280;13848;49.018;12.078;2023-09-19T00:10:45;97258.31;;;16.45;90.79
26083;BME280;13848;49.018;12.078;2023-09-19T00:13:11;97248.53;;;16.49;90.92
26083;BME280;13848;49.018;12.078;2023-09-19T00:15:38;97251.53;;;16.47;90.78
26083;BME280;13848;49.018;12.078;2023-09-19T00:18:04;97245.78;;;16.39;90.92
26083;BME280;13848;49.018;12.078;2023-09-19T00:20:32;97255.03;;;16.38;91.16
26083;BME280;13848;49.018;12.078;2023-09-19T00:22:58;97256.69;;;16.44;90.78
26083;BME280;13848;49.018;12.078;2023-09-19T00:25:24;97254.78;;;16.55;90.26
26083;BME280;13848;49.018;12.078;2023-09-19T00:27:50;97255.59;;;16.55;89.71
26083;BME280;13848;49.018;12.078;2023-09-19T00:30:17;97251.78;;;16.56;89.95
26083;BME280;13848;49.018;12.078;2023-09-19T00:32:43;97256.69;;;16.54;89.66
26083;BME280;13848;49.018;12.078;2023-09-19T00:35:09;97257.44;;;16.29;90.89
26083;BME280;13848;49.018;12.078;2023-09-19T00:37:37;97255.28;;;16.26;91.21
26083;BME280;13848;49.018;12.078;2023-09-19T00:40:04;97252.84;;;16.35;91.14
26083;BME280;13848;49.018;12.078;2023-09-19T00:42:30;97254.50;;;16.36;91.09
26083;BME280;13848;49.018;12.078;2023-09-19T00:44:56;97256.69;;;16.49;90.51
26083;BME280;13848;49.018;12.078;2023-09-19T00:47:22;97257.22;;;16.51;90.13
26083;BME280;13848;49.018;12.078;2023-09-19T00:49:48;97262.16;;;16.59;89.50
26083;BME280;13848;49.018;12.078;2023-09-19T00:52:15;97251.00;;;16.66;89.55
26083;BME280;13848;49.018;12.078;2023-09-19T00:54:43;97263.22;;;16.58;89.74
26083;BME280;13848;49.018;12.078;2023-09-19T00:57:08;97258.31;;;16.45;89.93
26083;BME280;13848;49.018;12.078;2023-09-19T00:59:35;97258.03;;;16.36;90.18
26083;BME280;13848;49.018;12.078;2023-09-19T01:02:02;97256.09;;;16.32;90.34
26083;BME280;13848;49.018;12.078;2023-09-19T01:04:28;97257.75;;;16.33;90.32
26083;BME280;13848;49.018;12.078;2023-09-19T01:06:54;97249.00;;;16.20;90.79
26083;BME280;13848;49.018;12.078;2023-09-19T01:09:21;97245.50;;;16.25;90.66
26083;BME280;13848;49.018;12.078;2023-09-19T01:11:50;97252.56;;;16.26;90.74
26083;BME280;13848;49.018;12.078;2023-09-19T01:14:20;97254.19;;;16.27;90.78
26083;BME280;13848;49.018;12.078;2023-09-19T01:17:02;97259.09;;;16.40;90.07
26083;BME280;13848;49.018;12.078;2023-09-19T01:19:59;97263.47;;;16.36;89.90
26083;BME280;13848;49.018;12.078;2023-09-19T01:22:34;97259.41;;;16.44;89.62
26083;BME280;13848;49.018;12.078;2023-09-19T01:25:28;97272.22;;;16.54;88.89
26083;BME280;13848;49.018;12.078;2023-09-19T01:31:02;97267.00;;;16.52;88.58
26083;BME280;13848;49.018;12.078;2023-09-19T01:33:58;97269.22;;;16.65;87.89
26083;BME280;13848;49.018;12.078;2023-09-19T01:36:25;97266.50;;;16.65;87.74
26083;BME280;13848;49.018;12.078;2023-09-19T01:38:52;97273.34;;;16.73;87.30
26083;BME280;13848;49.018;12.078;2023-09-19T01:41:26;97270.91;;;16.77;87.11
26083;BME280;13848;49.018;12.078;2023-09-19T01:43:54;97285.06;;;16.79;87.22
26083;BME280;13848;49.018;12.078;2023-09-19T01:46:25;97274.44;;;16.77;86.89
26083;BME280;13848;49.018;12.078;2023-09-19T01:49:02;97269.22;;;16.65;87.61
26083;BME280;13848;49.018;12.078;2023-09-19T01:51:34;97278.47;;;16.69;87.42
26083;BME280;13848;49.018;12.078;2023-09-19T01:54:03;97280.16;;;16.70;87.29
26083;BME280;13848;49.018;12.078;2023-09-19T01:56:38;97276.59;;;16.65;87.67
26083;BME280;13848;49.018;12.078;2023-09-19T01:59:10;97274.16;;;16.73;87.14
26083;BME280;13848;49.018;12.078;2023-09-19T02:01:40;97278.78;;;16.73;87.38
26083;BME280;13848;49.018;12.078;2023-09-19T02:04:08;97277.69;;;16.79;87.16
26083;BME280;13848;49.018;12.078;2023-09-19T02:06:34;97280.69;;;16.78;87.01
26083;BME280;13848;49.018;12.078;2023-09-19T02:09:00;97284.78;;;16.80;86.91
26083;BME280;13848;49.018;12.078;2023-09-19T02:11:26;97288.31;;;16.86;86.70
26083;BME280;13848;49.018;12.078;2023-09-19T02:13:52;97285.59;;;16.91;86.55
26083;BME280;13848;49.018;12.078;2023-09-19T02:16:18;97285.06;;;16.94;86.43
26083;BME280;13848;49.018;12.078;2023-09-19T02:18:46;97288.31;;;16.91;86.54
26083;BME280;13848;49.018;12.078;2023-09-19T02:21:12;97282.59;;;16.92;86.97
26083;BME280;13848;49.018;12.078;2023-09-19T02:23:38;97292.13;;;16.90;86.58
26083;BME280;13848;49.018;12.078;2023-09-19T02:26:04;97285.59;;;16.91;86.34
26083;BME280;13848;49.018;12.078;2023-09-19T02:28:30;97289.41;;;16.90;86.42
26083;BME280;13848;49.018;12.078;2023-09-19T02:30:56;97298.69;;;16.89;86.61
26083;BME280;13848;49.018;12.078;2023-09-19T02:33:22;97293.22;;;16.89;87.17
26083;BME280;13848;49.018;12.078;2023-09-19T02:35:49;97290.50;;;16.89;86.90
26083;BME280;13848;49.018;12.078;2023-09-19T02:38:15;97298.69;;;16.89;86.91
26083;BME280;13848;49.018;12.078;2023-09-19T02:40:42;97301.94;;;16.91;86.45
26083;BME280;13848;49.018;12.078;2023-09-19T02:43:08;97293.78;;;16.91;86.58
26083;BME280;13848;49.018;12.078;2023-09-19T02:45:34;97293.50;;;16.92;86.57
26083;BME280;13848;49.018;12.078;2023-09-19T02:48:00;97296.50;;;16.91;86.09
26083;BME280;13848;49.018;12.078;2023-09-19T02:50:26;97297.31;;;16.91;86.47
26083;BME280;13848;49.018;12.078;2023-09-19T02:52:53;97293.50;;;16.92;86.35
26083;BME280;13848;49.018;12.078;2023-09-19T02:55:19;97302.22;;;16.94;87.04
26083;BME280;13848;49.018;12.078;2023-09-19T02:57:46;97305.75;;;16.95;86.04
26083;BME280;13848;49.018;12.078;2023-09-19T03:00:13;97318.00;;;16.97;86.01
26083;BME280;13848;49.018;12.078;2023-09-19T03:02:39;97320.47;;;16.99;85.99
26083;BME280;13848;49.018;12.078;2023-09-19T03:05:05;97316.66;;;17.00;86.10
26083;BME280;13848;49.018;12.078;2023-09-19T03:07:31;97305.50;;;17.01;85.83
26083;BME280;13848;49.018;12.078;2023-09-19T03:09:59;97320.47;;;17.04;86.10
26083;BME280;13848;49.018;12.078;2023-09-19T03:12:25;97317.47;;;17.11;85.51
26083;BME280;13848;49.018;12.078;2023-09-19T03:14:51;97323.75;;;17.01;85.38
26083;BME280;13848;49.018;12.078;2023-09-19T03:17:17;97327.56;;;17.00;85.52
26083;BME280;13848;49.018;12.078;2023-09-19T03:19:43;97332.72;;;17.07;85.33
26083;BME280;13848;49.018;12.078;2023-09-19T03:22:09;97336.56;;;17.06;85.09
26083;BME280;13848;49.018;12.078;2023-09-19T03:24:35;97331.91;;;16.96;85.50
26083;BME280;13848;49.018;12.078;2023-09-19T03:27:03;97331.63;;;16.92;85.68
26083;BME280;13848;49.018;12.078;2023-09-19T03:29:29;97332.44;;;17.03;85.47
26083;BME280;13848;49.018;12.078;2023-09-19T03:31:55;97334.09;;;16.94;85.71
26083;BME280;13848;49.018;12.078;2023-09-19T03:34:21;97328.09;;;17.02;85.10
26083;BME280;13848;49.018;12.078;2023-09-19T03:36:49;97331.91;;;17.06;85.12
26083;BME280;13848;49.018;12.078;2023-09-19T03:39:15;97324.84;;;17.05;84.89
26083;BME280;13848;49.018;12.078;2023-09-19T03:41:41;97327.00;;;17.03;84.86
26083;BME280;13848;49.018;12.078;2023-09-19T03:44:08;97337.38;;;17.11;84.62
26083;BME280;13848;49.018;12.078;2023-09-19T03:46:34;97339.00;;;17.07;84.91
26083;BME280;13848;49.018;12.078;2023-09-19T03:49:00;97334.91;;;17.10;84.76
26083;BME280;13848;49.018;12.078;2023-09-19T03:51:26;97336.28;;;17.17;84.14
26083;BME280;13848;49.018;12.078;2023-09-19T03:53:52;97339.00;;;17.12;84.29
26083;BME280;13848;49.018;12.078;2023-09-19T03:56:18;97338.19;;;17.07;84.25
26083;BME280;13848;49.018;12.078;2023-09-19T03:58:44;97336.28;;;17.07;84.46
26083;BME280;13848;49.018;12.078;2023-09-19T04:01:11;97339.53;;;17.04;84.25
26083;BME280;13848;49.018;12.078;2023-09-19T04:03:37;97340.09;;;17.11;84.06
26083;BME280;13848;49.018;12.078;2023-09-19T04:06:03;97343.06;;;17.15;84.15
26083;BME280;13848;49.018;12.078;2023-09-19T04:08:29;97344.44;;;17.12;83.86
26083;BME280;13848;49.018;12.078;2023-09-19T04:10:55;97351.78;;;17.01;83.85
26083;BME280;13848;49.018;12.078;2023-09-19T04:13:21;97348.25;;;17.06;84.32
26083;BME280;13848;49.018;12.078;2023-09-19T04:15:47;97352.06;;;17.15;83.71
26083;BME280;13848;49.018;12.078;2023-09-19T04:18:14;97346.88;;;17.09;83.79
26083;BME280;13848;49.018;12.078;2023-09-19T04:20:40;97346.06;;;17.13;83.83
26083;BME280;13848;49.018;12.078;2023-09-19T04:23:06;97353.72;;;17.06;83.92
26083;BME280;13848;49.018;12.078;2023-09-19T04:25:32;97356.94;;;16.98;84.23
26083;BME280;13848;49.018;12.078;2023-09-19T04:27:58;97353.72;;;17.06;83.86
26083;BME280;13848;49.018;12.078;2023-09-19T04:30:24;97355.34;;;17.07;83.55
26083;BME280;13848;49.018;12.078;2023-09-19T04:32:50;97353.16;;;17.09;83.75
26083;BME280;13848;49.018;12.078;2023-09-19T04:35:17;97354.78;;;17.10;83.37
26083;BME280;13848;49.018;12.078;2023-09-19T04:37:43;97357.25;;;17.12;83.34
26083;BME280;13848;49.018;12.078;2023-09-19T04:40:09;97365.69;;;16.95;83.83
26083;BME280;13848;49.018;12.078;2023-09-19T04:42:36;97364.84;;;16.89;84.65
26083;BME280;13848;49.018;12.078;2023-09-19T04:45:02;97361.59;;;16.97;84.07
26083;BME280;13848;49.018;12.078;2023-09-19T04:47:28;97373.03;;;17.05;83.68
26083;BME280;13848;49.018;12.078;2023-09-19T04:49:54;97367.84;;;16.98;83.56
26083;BME280;13848;49.018;12.078;2023-09-19T04:52:21;97374.94;;;16.99;84.12
26083;BME280;13848;49.018;12.078;2023-09-19T04:54:47;97378.19;;;16.96;83.99
26083;BME280;13848;49.018;12.078;2023-09-19T04:57:13;97384.47;;;17.01;83.75
26083;BME280;13848;49.018;12.078;2023-09-19T04:59:39;97383.13;;;16.94;84.25
26083;BME280;13848;49.018;12.078;2023-09-19T05:02:05;97388.56;;;16.94;84.06
26083;BME280;13848;49.018;12.078;2023-09-19T05:04:30;97385.00;;;16.98;83.67
26083;BME280;13848;49.018;12.078;2023-09-19T05:06:56;97388.56;;;16.94;83.88
26083;BME280;13848;49.018;12.078;2023-09-19T05:09:24;97383.13;;;16.94;83.77
26083;BME280;13848;49.018;12.078;2023-09-19T05:11:50;97387.19;;;16.96;83.49
26083;BME280;13848;49.018;12.078;2023-09-19T05:14:16;97392.09;;;16.99;83.31
26083;BME280;13848;49.018;12.078;2023-09-19T05:16:42;97392.09;;;16.89;83.51
26083;BME280;13848;49.018;12.078;2023-09-19T05:19:07;97384.97;;;16.78;83.82
26083;BME280;13848;49.018;12.078;2023-09-19T05:21:33;97389.03;;;16.75;83.98
26083;BME280;13848;49.018;12.078;2023-09-19T05:23:59;97390.69;;;16.71;84.06
26083;BME280;13848;49.018;12.078;2023-09-19T05:26:27;97392.88;;;16.80;83.60
26083;BME280;13848;49.018;12.078;2023-09-19T05:28:53;97395.34;;;16.91;83.38
26083;BME280;13848;49.018;12.078;2023-09-19T05:31:18;97398.88;;;16.87;83.02
26083;BME280;13848;49.018;12.078;2023-09-19T05:33:44;97401.59;;;16.87;83.19
26083;BME280;13848;49.018;12.078;2023-09-19T05:36:10;97401.59;;;16.82;83.02
26083;BME280;13848;49.018;12.078;2023-09-19T05:38:36;97396.69;;;16.84;83.47
26083;BME280;13848;49.018;12.078;2023-09-19T05:41:02;97397.00;;;16.87;83.12
26083;BME280;13848;49.018;12.078;2023-09-19T05:43:29;97400.53;;;16.88;82.86
26083;BME280;13848;49.018;12.078;2023-09-19T05:45:55;97409.75;;;16.87;82.90
26083;BME280;13848;49.018;12.078;2023-09-19T05:48:21;97403.25;;;16.93;82.40
26083;BME280;13848;49.018;12.078;2023-09-19T05:50:47;97407.06;;;16.92;82.39
26083;BME280;13848;49.018;12.078;2023-09-19T05:53:14;97408.13;;;16.86;82.48
26083;BME280;13848;49.018;12.078;2023-09-19T05:55:40;97417.13;;;16.91;82.51
26083;BME280;13848;49.018;12.078;2023-09-19T05:58:06;97415.75;;;16.84;82.74
26083;BME280;13848;49.018;12.078;2023-09-19T06:00:33;97414.94;;;16.83;82.99
26083;BME280;13848;49.018;12.078;2023-09-19T06:02:59;97418.50;;;16.94;82.62
26083;BME280;13848;49.018;12.078;2023-09-19T06:05:26;97415.25;;;16.97;82.04
26083;BME280;13848;49.018;12.078;2023-09-19T06:07:53;97424.56;;;17.16;81.72
26083;BME280;13848;49.018;12.078;2023-09-19T06:10:19;97429.47;;;17.29;81.47
26083;BME280;13848;49.018;12.078;2023-09-19T06:12:45;97433.28;;;17.28;81.48
26083;BME280;13848;49.018;12.078;2023-09-19T06:15:12;97436.84;;;17.34;81.14
26083;BME280;13848;49.018;12.078;2023-09-19T06:17:40;97433.28;;;17.59;81.00
26083;BME280;13848;49.018;12.078;2023-09-19T06:20:07;97437.13;;;17.78;80.48
26083;BME280;13848;49.018;12.078;2023-09-19T06:22:33;97434.09;;;17.90;80.08
26083;BME280;13848;49.018;12.078;2023-09-19T06:24:59;97439.25;;;18.07;78.90
26083;BME280;13848;49.018;12.078;2023-09-19T06:27:25;97439.22;;;18.27;77.68
26083;BME280;13848;49.018;12.078;2023-09-19T06:29:51;97452.56;;;18.39;76.76
26083;BME280;13848;49.018;12.078;2023-09-19T06:32:16;97452.25;;;18.56;77.21
26083;BME280;13848;49.018;12.078;2023-09-19T06:34:44;97446.19;;;18.69;75.74
26083;BME280;13848;49.018;12.078;2023-09-19T06:37:10;97449.53;;;18.51;75.38
26083;BME280;13848;49.018;12.078;2023-09-19T06:39:36;97453.91;;;18.37;75.71
26083;BME280;13848;49.018;12.078;2023-09-19T06:42:02;97460.44;;;18.51;75.93
26083;BME280;13848;49.018;12.078;2023-09-19T06:44:28;97460.38;;;18.61;75.40
26083;BME280;13848;49.018;12.078;2023-09-19T06:46:54;97461.47;;;18.65;74.83
26083;BME280;13848;49.018;12.078;2023-09-19T06:49:20;97476.25;;;18.59;74.78
26083;BME280;13848;49.018;12.078;2023-09-19T06:51:47;97470.78;;;18.59;75.11
26083;BME280;13848;49.018;12.078;2023-09-19T06:54:13;97475.72;;;18.57;74.34
26083;BME280;13848;49.018;12.078;2023-09-19T06:56:39;97486.69;;;18.37;74.46
26083;BME280;13848;49.018;12.078;2023-09-19T06:59:05;97483.41;;;18.40;74.63
26083;BME280;13848;49.018;12.078;2023-09-19T07:01:31;97479.00;;;18.54;74.78
26083;BME280;13848;49.018;12.078;2023-09-19T07:03:57;97475.97;;;18.60;74.22
26083;BME280;13848;49.018;12.078;2023-09-19T07:06:22;97485.00;;;18.56;73.61
26083;BME280;13848;49.018;12.078;2023-09-19T07:08:50;97491.53;;;18.60;73.76
26083;BME280;13848;49.018;12.078;2023-09-19T07:11:16;97486.75;;;19.01;73.58
26083;BME280;13848;49.018;12.078;2023-09-19T07:13:42;97497.44;;;18.98;71.91
26083;BME280;13848;49.018;12.078;2023-09-19T07:16:08;97490.88;;;18.94;72.45
26083;BME280;13848;49.018;12.078;2023-09-19T07:18:33;97495.63;;;19.27;71.75
26083;BME280;13848;49.018;12.078;2023-09-19T07:21:00;97498.34;;;19.32;71.28
26083;BME280;13848;49.018;12.078;2023-09-19T07:23:26;97501.66;;;19.24;71.36
26083;BME280;13848;49.018;12.078;2023-09-19T07:25:56;97508.25;;;19.18;71.64
26083;BME280;13848;49.018;12.078;2023-09-19T07:28:22;97505.44;;;19.33;71.76
26083;BME280;13848;49.018;12.078;2023-09-19T07:30:48;97507.38;;;19.28;70.86
26083;BME280;13848;49.018;12.078;2023-09-19T07:33:14;97504.47;;;19.53;70.23
26083;BME280;13848;49.018;12.078;2023-09-19T07:35:40;97508.56;;;19.56;68.90
26083;BME280;13848;49.018;12.078;2023-09-19T07:38:06;97509.94;;;19.98;69.67
26083;BME280;13848;49.018;12.078;2023-09-19T07:40:32;97505.56;;;20.26;68.25
26083;BME280;13848;49.018;12.078;2023-09-19T07:42:59;97504.84;;;20.15;67.13
26083;BME280;13848;49.018;12.078;2023-09-19T07:45:25;97512.88;;;20.06;66.55
26083;BME280;13848;49.018;12.078;2023-09-19T07:47:51;97515.31;;;20.08;66.99
26083;BME280;13848;49.018;12.078;2023-09-19T07:50:19;97528.28;;;20.26;66.89
26083;BME280;13848;49.018;12.078;2023-09-19T07:52:45;97531.47;;;20.67;67.23
26083;BME280;13848;49.018;12.078;2023-09-19T07:55:12;97527.66;;;20.63;65.77
26083;BME280;13848;49.018;12.078;2023-09-19T07:57:38;97531.88;;;20.56;66.20
26083;BME280;13848;49.018;12.078;2023-09-19T08:00:06;97533.44;;;20.33;64.88
26083;BME280;13848;49.018;12.078;2023-09-19T08:02:34;97537.63;;;19.91;65.78
26083;BME280;13848;49.018;12.078;2023-09-19T08:05:00;97538.50;;;19.81;66.16
26083;BME280;13848;49.018;12.078;2023-09-19T08:07:26;97537.91;;;19.89;66.15
26083;BME280;13848;49.018;12.078;2023-09-19T08:09:52;97545.06;;;19.85;65.82
26083;BME280;13848;49.018;12.078;2023-09-19T08:12:18;97543.16;;;19.81;66.74
26083;BME280;13848;49.018;12.078;2023-09-19T08:14:44;97549.38;;;19.91;66.73
26083;BME280;13848;49.018;12.078;2023-09-19T08:17:11;97542.78;;;19.98;65.75
26083;BME280;13848;49.018;12.078;2023-09-19T08:19:37;97543.41;;;19.89;66.04
26083;BME280;13848;49.018;12.078;2023-09-19T08:22:03;97549.91;;;19.93;66.02
26083;BME280;13848;49.018;12.078;2023-09-19T08:24:30;97548.38;;;20.11;65.69
26083;BME280;13848;49.018;12.078;2023-09-19T08:26:57;97549.94;;;20.23;65.52
26083;BME280;13848;49.018;12.078;2023-09-19T08:29:24;97550.34;;;20.40;65.25
26083;BME280;13848;49.018;12.078;2023-09-19T08:31:50;97548.41;;;20.40;64.65
26083;BME280;13848;49.018;12.078;2023-09-19T08:34:17;97554.53;;;20.32;64.27
26083;BME280;13848;49.018;12.078;2023-09-19T08:36:43;97551.31;;;20.25;64.10
26083;BME280;13848;49.018;12.078;2023-09-19T08:39:09;97551.94;;;20.12;64.19
26083;BME280;13848;49.018;12.078;2023-09-19T08:41:35;97556.41;;;20.03;64.34
26083;BME280;13848;49.018;12.078;2023-09-19T08:44:01;97551.91;;;19.83;64.33
26083;BME280;13848;49.018;12.078;2023-09-19T08:46:28;97549.22;;;19.78;64.50
26083;BME280;13848;49.018;12.078;2023-09-19T08:49:02;97553.47;;;19.94;64.64
26083;BME280;13848;49.018;12.078;2023-09-19T08:51:35;97552.97;;;20.21;63.60
26083;BME280;13848;49.018;12.078;2023-09-19T08:54:07;97552.28;;;20.05;63.50
26083;BME280;13848;49.018;12.078;2023-09-19T08:56:34;97552.28;;;20.05;63.41
26083;BME280;13848;49.018;12.078;2023-09-19T08:59:03;97553.78;;;19.87;63.56
26083;BME280;13848;49.018;12.078;2023-09-19T09:01:29;97553.41;;;19.99;64.10
26083;BME280;13848;49.018;12.078;2023-09-19T09:03:56;97561.06;;;20.02;63.38
26083;BME280;13848;49.018;12.078;2023-09-19T09:06:24;97571.44;;;20.05;63.54
26083;BME280;13848;49.018;12.078;2023-09-19T09:08:51;97571.63;;;20.19;63.88
26083;BME280;13848;49.018;12.078;2023-09-19T09:11:18;97580.47;;;20.06;63.35
26083;BME280;13848;49.018;12.078;2023-09-19T09:13:45;97573.72;;;19.93;63.74
26083;BME280;13848;49.018;12.078;2023-09-19T09:16:11;97591.53;;;19.90;63.86
26083;BME280;13848;49.018;12.078;2023-09-19T09:18:37;97589.94;;;19.84;64.34
26083;BME280;13848;49.018;12.078;2023-09-19T09:21:04;97591.56;;;19.85;64.04
26083;BME280;13848;49.018;12.078;2023-09-19T09:23:30;97593.56;;;19.75;62.55
26083;BME280;13848;49.018;12.078;2023-09-19T09:25:58;97599.47;;;19.37;61.16
26083;BME280;13848;49.018;12.078;2023-09-19T09:28:27;97595.16;;;19.26;60.19
26083;BME280;13848;49.018;12.078;2023-09-19T09:30:53;97591.88;;;19.19;60.01
26083;BME280;13848;49.018;12.078;2023-09-19T09:33:20;97603.41;;;19.06;59.21
26083;BME280;13848;49.018;12.078;2023-09-19T09:35:50;97589.22;;;18.99;59.71
26083;BME280;13848;49.018;12.078;2023-09-19T09:38:16;97589.50;;;19.02;60.73
26083;BME280;13848;49.018;12.078;2023-09-19T09:40:46;97591.06;;;19.19;61.29
26083;BME280;13848;49.018;12.078;2023-09-19T09:43:25;97595.25;;;18.96;62.37
26083;BME280;13848;49.018;12.078;2023-09-19T09:46:06;97599.03;;;19.10;62.66
26083;BME280;13848;49.018;12.078;2023-09-19T09:48:32;97605.03;;;19.12;62.71
26083;BME280;13848;49.018;12.078;2023-09-19T09:50:59;97601.81;;;18.95;62.26
26083;BME280;13848;49.018;12.078;2023-09-19T09:53:26;97591.50;;;18.51;60.05
26083;BME280;13848;49.018;12.078;2023-09-19T09:56:00;97607.31;;;18.64;61.40
26083;BME280;13848;49.018;12.078;2023-09-19T09:58:28;97614.44;;;18.75;60.28
26083;BME280;13848;49.018;12.078;2023-09-19T10:00:54;97611.69;;;18.80;59.99
26083;BME280;13848;49.018;12.078;2023-09-19T10:03:20;97611.13;;;18.88;60.87
26083;BME280;13848;49.018;12.078;2023-09-19T10:05:53;97621.00;;;18.74;59.77
26083;BME280;13848;49.018;12.078;2023-09-19T10:08:19;97617.97;;;18.81;60.11
26083;BME280;13848;49.018;12.078;2023-09-19T10:10:45;97619.81;;;18.96;60.25
26083;BME280;13848;49.018;12.078;2023-09-19T10:13:12;97609.38;;;19.23;59.94
26083;BME280;13848;49.018;12.078;2023-09-19T10:15:42;97605.03;;;19.12;58.43
26083;BME280;13848;49.018;12.078;2023-09-19T10:18:10;97609.94;;;19.20;59.60
26083;BME280;13848;49.018;12.078;2023-09-19T10:20:37;97605.53;;;19.24;58.80
26083;BME280;13848;49.018;12.078;2023-09-19T10:23:07;97605.13;;;19.51;59.32
26083;BME280;13848;49.018;12.078;2023-09-19T10:25:36;97596.38;;;19.59;58.13
26083;BME280;13848;49.018;12.078;2023-09-19T10:28:05;97616.88;;;19.62;58.47
26083;BME280;13848;49.018;12.078;2023-09-19T10:30:32;97620.84;;;19.85;59.08
26083;BME280;13848;49.018;12.078;2023-09-19T10:33:04;97621.44;;;20.16;58.22
26083;BME280;13848;49.018;12.078;2023-09-19T10:35:32;97612.31;;;20.31;57.58
26083;BME280;13848;49.018;12.078;2023-09-19T10:40:26;97614.44;;;21.21;57.43
26083;BME280;13848;49.018;12.078;2023-09-19T10:42:53;97620.59;;;21.79;56.83
26083;BME280;13848;49.018;12.078;2023-09-19T10:45:21;97623.31;;;21.61;55.61
26083;BME280;13848;49.018;12.078;2023-09-19T10:47:47;97615.97;;;21.56;55.54
26083;BME280;13848;49.018;12.078;2023-09-19T10:50:21;97612.34;;;21.61;55.61
26083;BME280;13848;49.018;12.078;2023-09-19T10:52:47;97622.88;;;21.54;55.17
26083;BME280;13848;49.018;12.078;2023-09-19T10:55:15;97614.94;;;21.28;55.23
26083;BME280;13848;49.018;12.078;2023-09-19T10:57:44;97610.25;;;21.29;55.47
26083;BME280;13848;49.018;12.078;2023-09-19T11:00:10;97618.56;;;21.47;56.12
26083;BME280;13848;49.018;12.078;2023-09-19T11:02:36;97627.75;;;21.57;55.39
26083;BME280;13848;49.018;12.078;2023-09-19T11:05:11;97614.94;;;21.71;54.07
26083;BME280;13848;49.018;12.078;2023-09-19T11:07:59;97611.94;;;21.30;54.27
26083;BME280;13848;49.018;12.078;2023-09-19T11:10:44;97618.44;;;21.58;55.39
26083;BME280;13848;49.018;12.078;2023-09-19T11:13:23;97608.22;;;21.82;54.99
26083;BME280;13848;49.018;12.078;2023-09-19T11:16:17;97615.13;;;21.98;53.96
26083;BME280;13848;49.018;12.078;2023-09-19T11:18:53;97609.56;;;22.03;55.00
26083;BME280;13848;49.018;12.078;2023-09-19T11:21:51;97618.75;;;22.13;53.00
26083;BME280;13848;49.018;12.078;2023-09-19T11:24:31;97616.50;;;21.96;53.56
26083;BME280;13848;49.018;12.078;2023-09-19T11:27:25;97616.59;;;22.28;53.41
26083;BME280;13848;49.018;12.078;2023-09-19T11:30:26;97614.50;;;22.39;52.04
26083;BME280;13848;49.018;12.078;2023-09-19T11:33:17;97604.78;;;22.61;52.34
26083;BME280;13848;49.018;12.078;2023-09-19T11:35:58;97603.47;;;22.58;52.74
26083;BME280;13848;49.018;12.078;2023-09-19T11:38:57;97618.03;;;23.19;52.24
26083;BME280;13848;49.018;12.078;2023-09-19T11:41:40;97604.34;;;22.86;52.33
26083;BME280;13848;49.018;12.078;2023-09-19T11:44:34;97608.97;;;22.72;51.05
26083;BME280;13848;49.018;12.078;2023-09-19T11:47:00;97603.22;;;22.41;51.44
26083;BME280;13848;49.018;12.078;2023-09-19T11:49:29;97608.41;;;22.42;51.71
26083;BME280;13848;49.018;12.078;2023-09-19T11:51:56;97596.63;;;22.88;51.32
26083;BME280;13848;49.018;12.078;2023-09-19T11:54:22;97597.41;;;22.75;50.44
26083;BME280;13848;49.018;12.078;2023-09-19T11:56:51;97595.81;;;23.01;50.07
26083;BME280;13848;49.018;12.078;2023-09-19T11:59:20;97592.63;;;22.80;49.66
26083;BME280;13848;49.018;12.078;2023-09-19T12:01:51;97601.94;;;22.98;50.07
26083;BME280;13848;49.018;12.078;2023-09-19T12:04:18;97599.28;;;22.93;50.04
26083;BME280;13848;49.018;12.078;2023-09-19T12:06:56;97594.59;;;23.07;49.15
26083;BME280;13848;49.018;12.078;2023-09-19T12:09:22;97591.44;;;23.28;48.50
26083;BME280;13848;49.018;12.078;2023-09-19T12:11:49;97591.03;;;23.62;48.49
26083;BME280;13848;49.018;12.078;2023-09-19T12:14:22;97591.19;;;24.15;48.29
26083;BME280;13848;49.018;12.078;2023-09-19T12:16:52;97588.28;;;23.98;47.64
26083;BME280;13848;49.018;12.078;2023-09-19T12:19:19;97592.13;;;24.33;46.83
26083;BME280;13848;49.018;12.078;2023-09-19T12:21:54;97585.91;;;24.73;46.14
26083;BME280;13848;49.018;12.078;2023-09-19T12:24:20;97590.38;;;24.91;45.81
26083;BME280;13848;49.018;12.078;2023-09-19T12:26:46;97588.88;;;24.31;43.90
26083;BME280;13848;49.018;12.078;2023-09-19T12:29:15;97581.50;;;23.82;46.41
26083;BME280;13848;49.018;12.078;2023-09-19T12:31:49;97577.00;;;24.76;46.91
26083;BME280;13848;49.018;12.078;2023-09-19T12:34:16;97575.81;;;24.37;42.52
26083;BME280;13848;49.018;12.078;2023-09-19T12:36:42;97564.31;;;23.62;43.89
26083;BME280;13848;49.018;12.078;2023-09-19T12:39:08;97564.88;;;24.32;43.80
26083;BME280;13848;49.018;12.078;2023-09-19T12:41:34;97562.84;;;24.68;41.89
26083;BME280;13848;49.018;12.078;2023-09-19T12:44:01;97566.34;;;23.71;42.52
26083;BME280;13848;49.018;12.078;2023-09-19T12:46:28;97563.25;;;23.86;44.15
26083;BME280;13848;49.018;12.078;2023-09-19T12:49:16;97566.88;;;24.62;43.41
26083;BME280;13848;49.018;12.078;2023-09-19T12:51:43;97562.63;;;24.56;42.63
26083;BME280;13848;49.018;12.078;2023-09-19T12:54:09;97566.31;;;24.52;41.73
26083;BME280;13848;49.018;12.078;2023-09-19T12:56:39;97570.16;;;24.20;42.88
26083;BME280;13848;49.018;12.078;2023-09-19T12:59:06;97574.19;;;23.77;43.33
26083;BME280;13848;49.018;12.078;2023-09-19T13:01:33;97564.25;;;23.90;44.13